Time;durP1;ratioP1;P1;durP2;ratioP2;P2;SDS_P1;SDS_P2;PMS_P1;PMS_P2;Temp;Humidity;BMP_temperature;BMP_pressure;BME280_temperature;BME280_humidity;BME280_pressure;Samples;Min_cycle;Max_cycle;Signal;HPM_P1;HPM_P2
2022/02/14 00:02:17;;;;;;;6.13;3.77;;;3.80;99.90;;;;;;6243475;23;20020;-78
2022/02/14 00:04:44;;;;;;;5.03;3.43;;;3.80;99.90;;;;;;6243246;23;20020;-78
2022/02/14 00:07:12;;;;;;;3.13;2.90;;;3.90;99.90;;;;;;6242881;23;20020;-78
2022/02/14 00:09:38;;;;;;;6.63;5.13;;;3.90;99.90;;;;;;6242736;23;20036;-77
2022/02/14 00:12:05;;;;;;;5.13;3.33;;;3.90;99.90;;;;;;6242730;23;20508;-78
2022/02/14 00:14:31;;;;;;;7.47;3.57;;;3.80;99.90;;;;;;6243381;23;20023;-78
2022/02/14 00:16:57;;;;;;;7.93;4.00;;;3.80;99.90;;;;;;6242921;23;20308;-77
2022/02/14 00:19:23;;;;;;;4.07;3.50;;;3.80;99.90;;;;;;6242606;23;20020;-77
2022/02/14 00:21:50;;;;;;;5.03;4.00;;;3.70;99.90;;;;;;6242707;23;20024;-78
2022/02/14 00:24:17;;;;;;;4.27;3.10;;;3.80;99.90;;;;;;6242770;23;20020;-78
2022/02/14 00:26:43;;;;;;;4.57;3.23;;;3.80;99.90;;;;;;6242754;23;20027;-78
2022/02/14 00:29:09;;;;;;;6.60;3.90;;;3.80;99.90;;;;;;6242617;23;20020;-77
2022/02/14 00:31:35;;;;;;;6.93;3.37;;;3.70;99.90;;;;;;6242851;23;20027;-77
2022/02/14 00:34:01;;;;;;;5.33;3.40;;;3.70;99.90;;;;;;6243175;23;20020;-78
2022/02/14 00:36:27;;;;;;;2.87;2.40;;;3.80;99.90;;;;;;6242539;23;20016;-78
2022/02/14 00:38:54;;;;;;;8.17;3.63;;;3.80;99.90;;;;;;6242920;23;20086;-78
2022/02/14 00:41:20;;;;;;;4.23;3.33;;;3.90;99.90;;;;;;6243005;23;20031;-77
2022/02/14 00:43:46;;;;;;;7.20;4.03;;;3.90;99.90;;;;;;6242844;23;20016;-78
2022/02/14 00:46:12;;;;;;;6.20;3.73;;;3.90;99.90;;;;;;6242011;23;20115;-80
2022/02/14 00:48:38;;;;;;;6.40;4.43;;;3.90;99.90;;;;;;6242409;23;20078;-79
2022/02/14 00:51:04;;;;;;;6.37;3.73;;;3.90;99.90;;;;;;6242392;23;20070;-78
2022/02/14 00:53:30;;;;;;;5.27;3.40;;;3.90;99.90;;;;;;6206525;23;20028;-78
2022/02/14 00:55:57;;;;;;;3.87;3.47;;;3.90;99.90;;;;;;6212736;23;20021;-78
2022/02/14 00:58:23;;;;;;;5.70;3.87;;;3.90;99.90;;;;;;6212835;23;20448;-80
2022/02/14 01:00:49;;;;;;;7.10;4.53;;;3.80;99.90;;;;;;6212757;23;20027;-77
2022/02/14 01:03:15;;;;;;;8.57;3.60;;;3.90;99.90;;;;;;6212723;23;20051;-80
2022/02/14 01:05:41;;;;;;;4.00;3.13;;;3.90;99.90;;;;;;6212511;23;20047;-79
2022/02/14 01:08:07;;;;;;;5.77;3.33;;;3.90;99.90;;;;;;6213128;23;20467;-78
2022/02/14 01:10:34;;;;;;;4.97;4.13;;;3.80;99.90;;;;;;6212290;23;20104;-78
2022/02/14 01:13:01;;;;;;;5.60;3.53;;;3.80;99.90;;;;;;6211987;23;20028;-78
2022/02/14 01:15:27;;;;;;;5.93;4.10;;;3.80;99.90;;;;;;6212435;23;20032;-77
2022/02/14 01:17:53;;;;;;;5.97;3.50;;;3.80;99.90;;;;;;6212519;23;20035;-78
2022/02/14 01:20:20;;;;;;;5.17;4.03;;;3.80;99.90;;;;;;6212420;23;20027;-79
2022/02/14 01:22:46;;;;;;;4.57;4.17;;;3.90;99.90;;;;;;6242134;23;20028;-78
2022/02/14 01:25:13;;;;;;;6.10;4.47;;;3.90;99.90;;;;;;6242102;23;20074;-79
2022/02/14 01:27:39;;;;;;;4.80;3.63;;;3.80;99.90;;;;;;6242125;23;20447;-80
2022/02/14 01:30:09;;;;;;;4.10;3.80;;;3.90;99.90;;;;;;6242790;22;20028;-78
2022/02/14 01:32:35;;;;;;;4.57;3.90;;;3.80;99.90;;;;;;6242776;23;20027;-78
2022/02/14 01:35:02;;;;;;;4.93;2.97;;;3.80;99.90;;;;;;6242895;23;20032;-79
2022/02/14 01:37:29;;;;;;;7.97;4.03;;;3.80;99.90;;;;;;6242828;23;20024;-79
2022/02/14 01:39:57;;;;;;;6.47;3.50;;;3.80;99.90;;;;;;6242794;23;20024;-79
2022/02/14 01:42:23;;;;;;;5.90;3.27;;;3.80;99.90;;;;;;6242811;23;20028;-79
2022/02/14 01:44:53;;;;;;;5.93;3.37;;;3.80;99.90;;;;;;6242977;23;20028;-78
2022/02/14 01:47:21;;;;;;;3.47;2.90;;;3.80;99.90;;;;;;6242815;23;20470;-79
2022/02/14 01:49:49;;;;;;;4.37;3.20;;;3.70;99.90;;;;;;6242848;23;20017;-78
2022/02/14 01:52:16;;;;;;;5.80;3.37;;;3.80;99.90;;;;;;6242628;23;20016;-79
2022/02/14 01:54:44;;;;;;;4.43;3.43;;;3.70;99.90;;;;;;6242639;23;20020;-77
2022/02/14 01:57:13;;;;;;;3.73;3.00;;;3.70;99.90;;;;;;6242126;23;20028;-78
2022/02/14 01:59:39;;;;;;;5.87;4.03;;;3.70;99.90;;;;;;6243037;23;20024;-78
2022/02/14 02:02:07;;;;;;;4.37;3.17;;;3.70;99.90;;;;;;6242699;23;20391;-77
2022/02/14 02:04:34;;;;;;;10.33;3.97;;;3.70;99.90;;;;;;6242403;23;20020;-78
2022/02/14 02:07:01;;;;;;;5.83;3.60;;;3.60;99.90;;;;;;6242347;23;20443;-78
2022/02/14 02:09:27;;;;;;;5.10;3.30;;;3.60;99.90;;;;;;6242898;23;20439;-78
2022/02/14 02:14:38;;;;;;;3.20;2.87;;;3.60;99.90;;;;;;6212260;23;20031;-79
2022/02/14 02:17:04;;;;;;;5.00;2.90;;;3.60;99.90;;;;;;6212151;23;20083;-78
2022/02/14 02:19:30;;;;;;;9.53;3.30;;;3.60;99.90;;;;;;6211728;23;20455;-78
2022/02/14 02:21:56;;;;;;;4.47;3.93;;;3.60;99.90;;;;;;6212417;23;20027;-78
2022/02/14 02:24:24;;;;;;;7.33;3.90;;;3.60;99.90;;;;;;6212266;23;20025;-83
2022/02/14 02:27:10;;;;;;;5.23;4.23;;;3.50;99.90;;;;;;6218823;23;20080;-86
2022/02/14 02:29:40;;;;;;;9.90;4.00;;;3.50;99.90;;;;;;6243153;23;20095;-87
2022/02/14 02:32:08;;;;;;;7.57;4.00;;;3.50;99.90;;;;;;6247027;23;20050;-86
2022/02/14 02:34:38;;;;;;;4.37;3.10;;;3.60;99.90;;;;;;6245180;22;20073;-85
2022/02/14 02:37:07;;;;;;;6.00;4.10;;;3.60;99.90;;;;;;6219388;23;20055;-87
2022/02/14 02:39:37;;;;;;;5.30;4.10;;;3.50;99.90;;;;;;6245148;23;20074;-87
2022/02/14 02:42:05;;;;;;;6.17;3.50;;;3.40;99.90;;;;;;6245642;23;20024;-84
2022/02/14 02:44:34;;;;;;;3.77;2.93;;;3.40;99.90;;;;;;6245962;22;20026;-85
2022/02/14 02:47:01;;;;;;;4.33;3.00;;;3.60;99.90;;;;;;6239839;22;20016;-85
2022/02/14 02:49:27;;;;;;;4.53;4.03;;;3.60;99.90;;;;;;6245634;22;20095;-85
2022/02/14 02:51:54;;;;;;;5.23;3.27;;;3.50;99.90;;;;;;6245680;22;20355;-84
2022/02/14 02:54:22;;;;;;;8.93;4.17;;;3.50;99.90;;;;;;6246957;22;20078;-83
2022/02/14 02:56:51;;;;;;;5.70;3.43;;;3.50;99.90;;;;;;6247103;22;20039;-85
2022/02/14 02:59:23;;;;;;;4.37;2.60;;;3.50;99.90;;;;;;6248031;22;20020;-84
2022/02/14 03:01:50;;;;;;;;;;;3.50;99.90;;;;;;6245563;22;20051;-85
2022/02/14 03:04:17;;;;;;;5.23;2.83;;;3.50;99.90;;;;;;6247024;22;20204;-85
2022/02/14 03:06:44;;;;;;;4.70;2.90;;;3.50;99.90;;;;;;6246143;22;20082;-84
2022/02/14 03:09:12;;;;;;;4.80;3.13;;;3.60;99.90;;;;;;6246911;22;20035;-86
2022/02/14 03:11:42;;;;;;;6.33;3.70;;;3.50;99.90;;;;;;6246148;22;20098;-85
2022/02/14 03:14:09;;;;;;;4.37;2.90;;;3.60;99.90;;;;;;6245896;22;20016;-83
2022/02/14 03:16:36;;;;;;;9.30;4.73;;;3.60;99.90;;;;;;6245693;22;20020;-82
2022/02/14 03:19:04;;;;;;;7.57;3.57;;;3.70;99.90;;;;;;6243570;23;20043;-83
2022/02/14 03:21:30;;;;;;;4.23;3.93;;;3.60;99.90;;;;;;6246596;22;20020;-83
2022/02/14 03:24:02;;;;;;;7.40;3.90;;;3.70;99.90;;;;;;6246954;22;20082;-84
2022/02/14 03:26:36;;;;;;;4.13;3.20;;;3.70;99.90;;;;;;6249615;22;20024;-84
2022/02/14 03:29:06;;;;;;;5.10;3.47;;;3.70;99.90;;;;;;6243248;22;20027;-84
2022/02/14 03:31:33;;;;;;;3.53;3.23;;;3.70;99.90;;;;;;6246960;22;20030;-83
2022/02/14 03:34:00;;;;;;;4.70;3.10;;;3.70;99.90;;;;;;6246673;22;20708;-84
2022/02/14 03:36:27;;;;;;;5.70;3.20;;;3.70;99.90;;;;;;6247061;23;20102;-84
2022/02/14 03:38:53;;;;;;;6.10;3.67;;;3.60;99.90;;;;;;6246907;22;20439;-84
2022/02/14 03:41:21;;;;;;;5.03;3.67;;;3.70;99.90;;;;;;6209871;23;20025;-83
2022/02/14 03:43:47;;;;;;;2.33;2.13;;;3.60;99.90;;;;;;6216631;23;20048;-84
2022/02/14 03:46:14;;;;;;;3.87;2.30;;;3.70;99.90;;;;;;6214853;23;20063;-83
2022/02/14 03:48:41;;;;;;;5.50;1.87;;;3.80;99.90;;;;;;6215793;23;20021;-84
2022/02/14 03:51:09;;;;;;;4.33;3.27;;;3.80;99.90;;;;;;6213285;23;20048;-84
2022/02/14 03:53:35;;;;;;;4.93;3.17;;;3.80;99.90;;;;;;6209137;23;20336;-84
2022/02/14 03:56:01;;;;;;;5.60;3.73;;;3.90;99.90;;;;;;6215903;23;20021;-84
2022/02/14 03:58:27;;;;;;;5.87;3.50;;;3.70;99.90;;;;;;6214960;23;20017;-84
2022/02/14 04:00:54;;;;;;;2.80;2.50;;;3.70;99.90;;;;;;6215996;23;20046;-85
2022/02/14 04:03:20;;;;;;;6.60;3.00;;;3.80;99.90;;;;;;6215124;23;20048;-83
2022/02/14 04:05:49;;;;;;;8.57;3.00;;;3.70;99.90;;;;;;6215268;23;20028;-83
2022/02/14 04:08:17;;;;;;;2.77;2.43;;;3.60;99.90;;;;;;6215782;23;20017;-83
2022/02/14 04:10:44;;;;;;;8.00;3.83;;;3.70;99.90;;;;;;6215858;23;20025;-85
2022/02/14 04:13:11;;;;;;;4.13;3.00;;;3.60;99.90;;;;;;6215737;23;20455;-82
2022/02/14 04:15:38;;;;;;;4.90;3.40;;;3.60;99.90;;;;;;6216394;23;20032;-84
2022/02/14 04:18:05;;;;;;;6.73;2.77;;;3.60;99.90;;;;;;6188708;23;20023;-84
2022/02/14 04:20:31;;;;;;;6.43;3.50;;;3.60;99.90;;;;;;6215236;23;20448;-83
2022/02/14 04:22:58;;;;;;;4.17;2.63;;;3.60;99.90;;;;;;6215531;23;20052;-83
2022/02/14 04:25:25;;;;;;;7.23;3.67;;;3.50;99.90;;;;;;6215767;23;20079;-83
2022/02/14 04:27:51;;;;;;;4.00;3.10;;;3.50;99.90;;;;;;6215539;23;20113;-83
2022/02/14 04:30:20;;;;;;;7.70;2.87;;;3.60;99.90;;;;;;6215504;23;20075;-84
2022/02/14 04:32:47;;;;;;;4.97;3.67;;;3.60;99.90;;;;;;6216351;23;20016;-84
2022/02/14 04:35:14;;;;;;;2.97;2.37;;;3.50;99.90;;;;;;6216028;23;20021;-83
2022/02/14 04:37:43;;;;;;;2.57;2.37;;;3.40;99.90;;;;;;6215944;23;20027;-83
2022/02/14 04:40:10;;;;;;;2.23;2.03;;;3.40;99.90;;;;;;6215737;23;20286;-84
2022/02/14 04:42:41;;;;;;;3.60;2.63;;;3.40;99.90;;;;;;6216092;23;20293;-84
2022/02/14 04:45:08;;;;;;;4.20;3.43;;;3.40;99.90;;;;;;6216023;23;20028;-83
2022/02/14 04:47:38;;;;;;;3.63;2.43;;;3.40;99.90;;;;;;6215362;23;20263;-82
2022/02/14 04:50:10;;;;;;;4.60;3.03;;;3.40;99.90;;;;;;6214387;23;20048;-83
2022/02/14 04:52:41;;;;;;;3.10;2.80;;;3.30;99.90;;;;;;6213795;23;20028;-82
2022/02/14 04:55:16;;;;;;;3.50;2.05;;;3.30;99.90;;;;;;6215345;23;20848;-83
2022/02/14 04:57:49;;;;;;;4.23;2.80;;;3.30;99.90;;;;;;6215229;23;20032;-84
2022/02/14 05:00:17;;;;;;;1.87;1.77;;;3.30;99.90;;;;;;6211965;23;20024;-82
2022/02/14 05:02:49;;;;;;;4.20;2.97;;;3.30;99.90;;;;;;6211088;23;20017;-84
2022/02/14 05:05:27;;;;;;;2.00;1.90;;;3.30;99.90;;;;;;6210445;23;20024;-83
2022/02/14 05:07:56;;;;;;;5.17;2.73;;;3.30;99.90;;;;;;6213198;23;20161;-84
2022/02/14 05:10:23;;;;;;;6.40;3.63;;;3.30;99.90;;;;;;6215521;23;20020;-83
2022/02/14 05:12:50;;;;;;;5.40;3.03;;;3.30;99.90;;;;;;6215366;23;20021;-84
2022/02/14 05:15:17;;;;;;;3.17;2.83;;;3.30;99.90;;;;;;6212406;23;20318;-84
2022/02/14 05:17:44;;;;;;;4.60;1.93;;;3.30;99.90;;;;;;6215346;23;20025;-84
2022/02/14 05:20:10;;;;;;;9.43;4.63;;;3.30;99.90;;;;;;6216660;23;20020;-83
2022/02/14 05:22:37;;;;;;;2.53;1.73;;;3.30;99.90;;;;;;6228222;23;20021;-84
2022/02/14 05:25:04;;;;;;;6.60;4.17;;;3.30;99.90;;;;;;6235162;23;20032;-84
2022/02/14 05:27:30;;;;;;;8.80;2.93;;;3.30;99.90;;;;;;6216048;23;20340;-77
2022/02/14 05:29:57;;;;;;;5.00;3.63;;;3.20;99.90;;;;;;6212247;23;20574;-77
2022/02/14 05:32:23;;;;;;;5.47;2.37;;;3.10;99.90;;;;;;6211052;23;20025;-81
2022/02/14 05:34:49;;;;;;;6.80;3.87;;;3.10;99.90;;;;;;6211195;23;20036;-81
2022/02/14 05:37:15;;;;;;;4.13;2.93;;;3.10;99.90;;;;;;6205809;23;20439;-79
2022/02/14 05:39:44;;;;;;;4.73;2.70;;;3.10;99.90;;;;;;6210831;23;20381;-79
2022/02/14 05:42:11;;;;;;;4.70;3.00;;;3.10;99.90;;;;;;6216957;23;20032;-79
2022/02/14 05:44:37;;;;;;;3.50;3.00;;;3.00;99.90;;;;;;6213586;23;20517;-80
2022/02/14 05:47:04;;;;;;;5.40;3.00;;;3.00;99.90;;;;;;6211283;23;20027;-77
2022/02/14 05:49:31;;;;;;;3.60;2.87;;;3.00;99.90;;;;;;6214551;23;20048;-79
2022/02/14 05:51:57;;;;;;;4.23;3.43;;;3.00;99.90;;;;;;6219303;23;20029;-85
2022/02/14 05:54:23;;;;;;;4.17;3.53;;;3.00;99.90;;;;;;6217461;23;20017;-81
2022/02/14 05:56:50;;;;;;;6.87;2.50;;;2.90;99.90;;;;;;6216051;23;20025;-81
2022/02/14 05:59:15;;;;;;;3.10;2.43;;;2.90;99.90;;;;;;6214388;23;20039;-79
2022/02/14 06:01:42;;;;;;;5.97;2.77;;;2.90;99.90;;;;;;6214695;23;20020;-79
2022/02/14 06:04:09;;;;;;;6.37;3.80;;;2.90;99.90;;;;;;6213118;23;20069;-79
2022/02/14 06:06:38;;;;;;;8.53;2.73;;;3.00;99.90;;;;;;6210624;23;20016;-78
2022/02/14 06:09:11;;;;;;;4.73;3.37;;;3.00;99.90;;;;;;6217191;23;20021;-86
2022/02/14 06:11:37;;;;;;;18.93;11.37;;;3.00;99.90;;;;;;6226378;23;20024;-81
2022/02/14 06:14:04;;;;;;;8.13;6.40;;;3.00;99.90;;;;;;6226998;23;20020;-83
2022/02/14 06:16:31;;;;;;;3.47;2.80;;;3.00;99.90;;;;;;6230019;23;20025;-78
2022/02/14 06:18:57;;;;;;;6.87;3.83;;;3.00;99.90;;;;;;6215769;23;20055;-78
2022/02/14 06:21:24;;;;;;;1.20;1.00;;;2.90;99.90;;;;;;6217038;23;20086;-77
2022/02/14 06:23:50;;;;;;;3.77;2.57;;;2.90;99.90;;;;;;6218029;23;20443;-77
2022/02/14 06:26:17;;;;;;;2.60;2.40;;;2.90;99.90;;;;;;6216093;23;20035;-79
2022/02/14 06:28:43;;;;;;;2.30;1.97;;;2.90;99.90;;;;;;6226590;23;20027;-80
2022/02/14 06:31:10;;;;;;;1.80;1.70;;;2.90;99.90;;;;;;6228257;23;20055;-80
2022/02/14 06:33:37;;;;;;;3.57;2.50;;;3.00;99.90;;;;;;6230173;23;20024;-80
2022/02/14 06:36:04;;;;;;;5.23;3.63;;;3.00;99.90;;;;;;6229750;23;20052;-80
2022/02/14 06:38:32;;;;;;;3.30;3.00;;;3.00;99.90;;;;;;6227161;23;20017;-80
2022/02/14 06:40:58;;;;;;;4.70;3.30;;;3.00;99.90;;;;;;6225820;23;20020;-81
2022/02/14 06:43:24;;;;;;;3.50;3.20;;;3.10;99.90;;;;;;6222562;23;20073;-78
2022/02/14 06:45:51;;;;;;;4.63;3.23;;;3.20;99.90;;;;;;6217139;23;20033;-79
2022/02/14 06:48:18;;;;;;;3.23;2.40;;;3.30;99.90;;;;;;6215750;23;20036;-79
2022/02/14 06:50:44;;;;;;;6.47;3.40;;;3.30;99.90;;;;;;6214161;23;20021;-80
2022/02/14 06:53:10;;;;;;;6.43;3.10;;;3.50;99.90;;;;;;6212160;23;20447;-78
2022/02/14 06:55:37;;;;;;;3.73;2.80;;;3.50;99.90;;;;;;6215271;23;20059;-77
2022/02/14 06:58:03;;;;;;;4.43;4.00;;;3.60;99.90;;;;;;6214152;23;20033;-80
2022/02/14 07:00:29;;;;;;;4.90;3.43;;;3.70;99.90;;;;;;6214859;23;20020;-80
2022/02/14 07:02:55;;;;;;;2.03;1.93;;;3.70;99.90;;;;;;6214276;23;20017;-80
2022/02/14 07:05:22;;;;;;;5.17;3.50;;;3.90;99.90;;;;;;6213174;23;20063;-80
2022/02/14 07:07:49;;;;;;;2.97;2.60;;;4.00;99.90;;;;;;6213939;23;20021;-80
2022/02/14 07:10:16;;;;;;;5.20;4.80;;;4.10;99.90;;;;;;6214159;23;20071;-79
2022/02/14 07:12:44;;;;;;;2.47;1.90;;;4.10;99.90;;;;;;6213508;23;20443;-80
2022/02/14 07:15:11;;;;;;;2.80;2.40;;;4.10;99.90;;;;;;6214277;23;20021;-80
2022/02/14 07:17:37;;;;;;;4.23;3.40;;;4.20;99.90;;;;;;6209518;23;21379;-77
2022/02/14 07:20:12;;;;;;;3.27;2.17;;;4.20;99.90;;;;;;6213730;23;20024;-81
2022/02/14 07:28:29;;;;;;;3.77;2.53;;;4.50;99.90;;;;;;6259705;22;20050;-84
2022/02/14 07:30:55;;;;;;;6.30;3.87;;;4.60;99.90;;;;;;6241574;23;20894;-82
2022/02/14 07:33:31;;;;;;;3.93;3.43;;;4.60;99.90;;;;;;6243696;23;20051;-82
2022/02/14 07:35:57;;;;;;;4.07;3.17;;;4.60;99.90;;;;;;6248881;23;20024;-82
2022/02/14 07:38:23;;;;;;;2.70;2.50;;;4.80;99.90;;;;;;6227712;23;20031;-81
2022/02/14 07:40:49;;;;;;;5.00;3.57;;;5.20;99.90;;;;;;6250026;23;20097;-80
2022/02/14 07:43:17;;;;;;;16.17;3.67;;;5.40;99.90;;;;;;6248084;23;20023;-81
2022/02/14 07:45:44;;;;;;;3.47;3.10;;;5.40;99.90;;;;;;6243897;23;20024;-81
2022/02/14 07:48:10;;;;;;;2.43;2.23;;;5.40;99.90;;;;;;6243940;23;20096;-79
2022/02/14 07:50:36;;;;;;;3.10;2.43;;;5.30;99.90;;;;;;6243797;23;20016;-81
2022/02/14 07:53:02;;;;;;;5.07;2.83;;;5.50;99.90;;;;;;6242962;23;20024;-80
2022/02/14 07:55:28;;;;;;;4.97;2.27;;;5.90;99.90;;;;;;6244648;23;21607;-82
2022/02/14 07:57:56;;;;;;;3.73;3.13;;;6.00;99.90;;;;;;6243811;23;20027;-80
2022/02/14 08:00:22;;;;;;;7.40;4.07;;;6.20;99.90;;;;;;6242808;23;20019;-78
2022/02/14 08:02:49;;;;;;;5.57;3.30;;;5.90;99.90;;;;;;6239329;23;20027;-78
2022/02/14 08:05:15;;;;;;;5.80;3.47;;;6.40;99.90;;;;;;6243432;23;20023;-84
2022/02/14 08:07:41;;;;;;;4.53;2.10;;;6.50;99.90;;;;;;6216818;23;20094;-82
2022/02/14 08:10:08;;;;;;;7.23;3.60;;;6.70;99.90;;;;;;6243831;23;20016;-82
2022/02/14 08:12:34;;;;;;;4.87;2.70;;;6.80;99.90;;;;;;6243748;23;20023;-82
2022/02/14 08:15:01;;;;;;;3.43;3.03;;;6.90;99.70;;;;;;6243040;23;20035;-80
2022/02/14 08:17:30;;;;;;;9.37;7.47;;;7.10;99.70;;;;;;6244705;23;20020;-86
2022/02/14 08:19:57;;;;;;;11.47;9.63;;;7.30;98.30;;;;;;6244434;23;20024;-83
2022/02/14 08:22:23;;;;;;;7.40;2.77;;;7.30;97.60;;;;;;6243583;23;20031;-79
2022/02/14 08:24:49;;;;;;;2.80;2.57;;;7.80;96.50;;;;;;6242337;23;20492;-79
2022/02/14 08:27:17;;;;;;;5.03;2.93;;;7.70;96.10;;;;;;6241465;23;20024;-77
2022/02/14 08:29:45;;;;;;;4.67;2.97;;;7.70;95.90;;;;;;6241193;23;20081;-77
2022/02/14 08:32:11;;;;;;;3.37;3.07;;;7.80;95.90;;;;;;6241461;23;20051;-80
2022/02/14 08:34:37;;;;;;;7.97;2.83;;;7.90;95.30;;;;;;6242758;23;20024;-79
2022/02/14 08:37:07;;;;;;;3.13;2.30;;;8.40;94.20;;;;;;6244681;23;20467;-90
2022/02/14 08:39:33;;;;;;;10.05;3.30;;;8.50;93.20;;;;;;6245776;23;20027;-78
2022/02/14 08:42:00;;;;;;;4.63;3.15;;;8.70;93.00;;;;;;6242784;23;20309;-80
2022/02/14 08:44:26;;;;;;;4.07;3.28;;;8.70;92.60;;;;;;6243250;23;20030;-78
2022/02/14 08:46:52;;;;;;;3.97;3.00;;;8.80;92.10;;;;;;6244436;23;20078;-79
2022/02/14 08:49:20;;;;;;;3.30;2.50;;;9.10;91.20;;;;;;6245243;23;20032;-86
2022/02/14 08:51:46;;;;;;;5.07;3.05;;;9.40;90.40;;;;;;6244062;23;20103;-82
2022/02/14 08:54:13;;;;;;;3.80;2.67;;;9.50;90.30;;;;;;6247597;23;20024;-83
2022/02/14 08:56:39;;;;;;;4.22;2.58;;;9.60;88.90;;;;;;6248353;23;20020;-83
2022/02/14 08:59:05;;;;;;;6.78;3.33;;;9.30;88.60;;;;;;6248099;23;20103;-80
2022/02/14 09:01:32;;;;;;;6.00;3.20;;;9.40;88.50;;;;;;6244423;23;20440;-81
2022/02/14 09:03:58;;;;;;;3.80;2.60;;;9.90;87.20;;;;;;6247647;23;20047;-82
2022/02/14 09:06:26;;;;;;;12.63;8.43;;;9.80;87.30;;;;;;6241057;23;20194;-79
2022/02/14 09:08:52;;;;;;;12.00;10.73;;;10.20;84.60;;;;;;6240228;23;20060;-81
2022/02/14 09:11:19;;;;;;;5.00;3.67;;;10.10;85.40;;;;;;6244873;23;20036;-85
2022/02/14 09:13:45;;;;;;;4.40;2.92;;;10.90;82.90;;;;;;6248094;23;20066;-85
2022/02/14 09:16:11;;;;;;;3.88;2.85;;;11.30;80.50;;;;;;6244319;23;20301;-79
2022/02/14 09:18:38;;;;;;;4.07;2.63;;;11.20;79.30;;;;;;6242435;23;20051;-80
2022/02/14 09:21:05;;;;;;;4.10;2.72;;;11.20;79.20;;;;;;6246563;23;20019;-79
2022/02/14 09:23:34;;;;;;;4.85;3.30;;;10.60;79.50;;;;;;6242186;23;20323;-80
2022/02/14 09:26:00;;;;;;;5.45;2.50;;;10.70;80.10;;;;;;6241957;23;20087;-79
2022/02/14 09:28:27;;;;;;;5.32;2.72;;;10.80;78.00;;;;;;6242957;23;20322;-79
2022/02/14 09:30:56;;;;;;;4.15;2.75;;;11.10;78.10;;;;;;6242956;23;20514;-80
2022/02/14 09:33:24;;;;;;;4.05;2.72;;;11.20;77.00;;;;;;6245151;23;20017;-80
2022/02/14 09:35:53;;;;;;;5.68;3.20;;;12.00;76.10;;;;;;6249848;23;20017;-80
2022/02/14 09:38:20;;;;;;;6.93;2.80;;;11.20;75.20;;;;;;6247305;23;20020;-80
2022/02/14 09:40:46;;;;;;;4.20;3.13;;;11.50;75.90;;;;;;6245789;23;20024;-80
2022/02/14 09:43:16;;;;;;;6.82;2.40;;;11.70;75.30;;;;;;6244572;23;20390;-80
2022/02/14 09:46:08;;;;;;;3.78;3.10;;;11.90;75.20;;;;;;6244830;23;20052;-82
2022/02/14 09:48:35;;;;;;;;;;;11.90;74.20;;;;;;6251008;23;20020;-83
2022/02/14 09:51:01;;;;;;;20.27;12.18;;;12.60;72.80;;;;;;6251997;23;19923;-82
2022/02/14 09:53:29;;;;;;;3.65;3.05;;;12.70;72.10;;;;;;6253999;23;20024;-79
2022/02/14 09:55:55;;;;;;;8.07;3.03;;;13.80;71.00;;;;;;6243878;23;20028;-82
2022/02/14 09:58:21;;;;;;;5.22;3.13;;;14.30;69.80;;;;;;6244221;23;20046;-79
2022/02/14 10:00:49;;;;;;;3.47;2.60;;;14.70;67.20;;;;;;6245405;23;20020;-79
2022/02/14 10:03:22;;;;;;;3.97;2.30;;;14.50;66.80;;;;;;6246045;23;20017;-82
2022/02/14 10:05:50;;;;;;;3.17;2.20;;;15.00;65.60;;;;;;6247992;23;20443;-82
2022/02/14 10:08:20;;;;;;;5.65;3.25;;;15.20;63.80;;;;;;6246740;23;20313;-79
2022/02/14 10:10:47;;;;;;;2.85;2.45;;;15.70;62.80;;;;;;6245145;23;20016;-78
2022/02/14 10:13:32;;;;;;;2.90;2.45;;;15.00;63.80;;;;;;6243804;23;20028;-79
2022/02/14 10:15:58;;;;;;;5.40;3.05;;;17.40;60.10;;;;;;6241695;23;20083;-79
2022/02/14 10:18:30;;;;;;;4.05;2.83;;;16.90;59.30;;;;;;6243660;23;20024;-79
2022/02/14 10:21:23;;;;;;;4.05;3.45;;;17.80;57.50;;;;;;6246598;23;20363;-78
2022/02/14 10:24:08;;;;;;;3.33;2.95;;;17.20;57.00;;;;;;6243398;23;20081;-78
2022/02/14 10:26:36;;;;;;;3.22;2.55;;;16.60;57.20;;;;;;6241684;23;20074;-78
2022/02/14 10:29:12;;;;;;;3.28;2.97;;;15.00;59.40;;;;;;6240554;23;20020;-81
2022/02/14 10:31:42;;;;;;;4.72;3.25;;;16.10;58.80;;;;;;6241997;23;20025;-84
2022/02/14 10:34:09;;;;;;;8.63;2.83;;;16.30;58.20;;;;;;6241980;23;20062;-81
2022/02/14 10:36:37;;;;;;;5.07;3.33;;;17.30;56.30;;;;;;6243019;23;20054;-79
2022/02/14 10:39:09;;;;;;;3.50;2.83;;;17.80;54.80;;;;;;6241359;23;20028;-79
2022/02/14 10:41:35;;;;;;;3.40;2.53;;;16.40;56.50;;;;;;6243147;23;20054;-79
2022/02/14 10:44:10;;;;;;;3.30;2.80;;;16.70;57.50;;;;;;6241318;23;20035;-79
2022/02/14 10:46:37;;;;;;;3.17;2.90;;;17.10;56.30;;;;;;6241947;23;20028;-79
2022/02/14 10:49:08;;;;;;;3.92;2.60;;;18.20;54.80;;;;;;6242073;23;20024;-82
2022/02/14 10:51:35;;;;;;;4.18;3.42;;;17.30;54.80;;;;;;6243965;23;20439;-81
2022/02/14 10:54:04;;;;;;;4.75;2.83;;;17.70;54.60;;;;;;6244951;23;20032;-84
2022/02/14 10:56:39;;;;;;;6.30;3.20;;;18.40;53.70;;;;;;6244166;23;20032;-79
2022/02/14 10:59:16;;;;;;;3.13;2.85;;;17.60;54.50;;;;;;6244360;23;20028;-79
2022/02/14 11:01:43;;;;;;;4.82;2.72;;;18.80;53.50;;;;;;6244259;23;20079;-83
2022/02/14 11:04:09;;;;;;;2.97;2.75;;;18.40;53.40;;;;;;6237914;23;20461;-79
2022/02/14 11:06:38;;;;;;;4.20;2.55;;;18.00;53.60;;;;;;6241663;23;20024;-80
2022/02/14 11:09:04;;;;;;;4.85;2.75;;;19.10;52.30;;;;;;6240977;23;20032;-83
2022/02/14 11:11:34;;;;;;;11.57;5.47;;;20.40;49.70;;;;;;6241404;22;20055;-79
2022/02/14 11:14:02;;;;;;;5.88;3.88;;;21.60;48.50;;;;;;6245088;22;20125;-79
2022/02/14 11:16:32;;;;;;;2.95;1.70;;;19.90;49.40;;;;;;6245650;22;20058;-79
2022/02/14 11:19:01;;;;;;;5.45;2.88;;;18.70;50.90;;;;;;6246440;22;20455;-79
2022/02/14 11:21:27;;;;;;;4.97;2.50;;;18.50;52.10;;;;;;6246611;22;20016;-80
2022/02/14 11:23:59;;;;;;;7.30;5.05;;;18.50;50.80;;;;;;6245331;22;20383;-80
2022/02/14 11:26:37;;;;;;;5.97;3.92;;;20.00;51.30;;;;;;6245902;22;20020;-82
2022/02/14 11:29:13;;;;;;;4.57;2.88;;;22.00;48.10;;;;;;6244704;22;20055;-80
2022/02/14 11:31:39;;;;;;;6.00;3.90;;;20.00;48.00;;;;;;6244620;23;20027;-80
2022/02/14 11:34:06;;;;;;;3.67;2.55;;;20.80;49.10;;;;;;6244658;23;20851;-79
2022/02/14 11:36:34;;;;;;;4.70;2.40;;;20.10;48.50;;;;;;6244471;23;20050;-80
2022/02/14 11:39:04;;;;;;;3.70;2.08;;;20.00;49.10;;;;;;6238187;22;20023;-81
2022/02/14 11:41:34;;;;;;;4.10;3.50;;;19.80;49.10;;;;;;6245478;22;20020;-81
2022/02/14 11:44:20;;;;;;;3.45;2.47;;;20.20;49.40;;;;;;6244869;23;20032;-80
2022/02/14 11:46:46;;;;;;;3.08;2.42;;;18.70;51.10;;;;;;6237294;23;20020;-79
2022/02/14 11:49:15;;;;;;;3.90;2.65;;;18.90;51.00;;;;;;6244503;23;20024;-80
2022/02/14 11:51:43;;;;;;;3.38;2.40;;;20.50;49.50;;;;;;6244069;23;20016;-81
2022/02/14 11:54:28;;;;;;;4.63;2.53;;;21.40;46.90;;;;;;6244434;23;20083;-79
2022/02/14 11:57:15;;;;;;;4.43;2.85;;;21.10;46.30;;;;;;6243687;23;20028;-80
2022/02/14 11:59:41;;;;;;;2.45;2.25;;;20.60;47.10;;;;;;6244160;23;20024;-81
2022/02/14 12:02:08;;;;;;;5.00;2.25;;;22.20;45.80;;;;;;6244689;23;20027;-80
2022/02/14 12:04:46;;;;;;;2.65;2.45;;;23.00;44.80;;;;;;6244143;23;20020;-82
2022/02/14 12:07:23;;;;;;;2.22;2.03;;;21.70;45.50;;;;;;6244354;23;20051;-80
2022/02/14 12:10:14;;;;;;;2.78;2.30;;;21.00;46.80;;;;;;6244705;23;20479;-80
2022/02/14 12:13:06;;;;;;;8.02;2.40;;;21.50;46.30;;;;;;6223990;23;20961;-79
2022/02/14 12:21:21;;;;;;;2.17;1.90;;;20.20;47.90;;;;;;6244253;23;20087;-82
2022/02/14 12:23:49;;;;;;;3.58;2.63;;;18.90;50.20;;;;;;6238009;23;20063;-80
2022/02/14 12:26:18;;;;;;;3.80;2.70;;;20.90;48.80;;;;;;6240252;23;20040;-80
2022/02/14 12:28:46;;;;;;;4.15;2.10;;;21.90;45.80;;;;;;6236864;23;20462;-82
2022/02/14 12:31:12;;;;;;;7.38;2.33;;;23.50;44.80;;;;;;6243198;23;20452;-81
2022/02/14 12:33:40;;;;;;;2.58;2.35;;;21.90;46.10;;;;;;6243740;23;20439;-80
2022/02/14 12:36:10;;;;;;;3.17;2.22;;;22.40;45.80;;;;;;6241010;23;20022;-81
2022/02/14 12:38:38;;;;;;;2.67;2.47;;;20.80;46.20;;;;;;6243847;23;20023;-81
2022/02/14 12:41:06;;;;;;;4.00;2.50;;;19.60;50.00;;;;;;6243857;23;20024;-80
2022/02/14 12:43:37;;;;;;;1.70;1.60;;;20.70;49.50;;;;;;6244155;23;20020;-79
2022/02/14 12:46:05;;;;;;;4.72;2.45;;;19.80;49.50;;;;;;6243741;23;20020;-79
2022/02/14 12:48:33;;;;;;;2.47;2.28;;;20.10;49.60;;;;;;6248568;23;20074;-81
2022/02/14 12:51:01;;;;;;;1.52;1.42;;;20.80;48.90;;;;;;6248448;23;20942;-80
2022/02/14 12:53:28;;;;;;;3.67;1.85;;;19.70;49.20;;;;;;6248388;23;20101;-80
2022/02/14 12:55:57;;;;;;;2.85;2.25;;;19.60;50.30;;;;;;6247759;23;20020;-80
2022/02/14 12:58:25;;;;;;;4.05;2.45;;;20.30;49.10;;;;;;6247375;23;20536;-81
2022/02/14 13:01:02;;;;;;;3.60;2.00;;;20.90;48.20;;;;;;6245279;23;20020;-80
2022/02/14 13:03:28;;;;;;;4.40;2.15;;;20.30;48.70;;;;;;6247363;23;20077;-81
2022/02/14 13:05:55;;;;;;;5.90;2.35;;;19.50;50.30;;;;;;6252122;23;20086;-80
2022/02/14 13:08:25;;;;;;;4.78;2.53;;;20.00;50.40;;;;;;6256744;23;20017;-79
2022/02/14 13:10:54;;;;;;;2.63;2.17;;;21.40;48.70;;;;;;6249060;23;20017;-80
2022/02/14 13:13:30;;;;;;;2.55;2.35;;;20.50;48.50;;;;;;6240440;23;20261;-80